createdAt,value
2023-01-02T00:01:24.500Z,9.90
2023-01-02T00:03:54.004Z,10.00
2023-01-02T00:06:21.343Z,10.07
2023-01-02T00:08:48.703Z,10.50
2023-01-02T00:11:16.271Z,10.00
2023-01-02T00:13:43.566Z,10.65
2023-01-02T00:16:10.864Z,10.13
2023-01-02T00:18:38.122Z,10.10
2023-01-02T00:21:08.277Z,9.75
2023-01-02T00:23:35.745Z,10.25
2023-01-02T00:26:03.211Z,9.32
2023-01-02T00:28:31.402Z,10.43
2023-01-02T00:30:58.986Z,10.35
2023-01-02T00:33:26.337Z,10.25
2023-01-02T00:35:53.628Z,10.63
2023-01-02T00:38:21.092Z,10.02
2023-01-02T00:40:48.489Z,10.45
2023-01-02T00:43:16.847Z,9.68
2023-01-02T00:45:44.512Z,10.20
2023-01-02T00:48:11.955Z,10.07
2023-01-02T00:50:39.259Z,11.35
2023-01-02T00:53:06.546Z,10.55
2023-01-02T00:55:33.831Z,9.77
2023-01-02T00:58:02.589Z,10.52
2023-01-02T01:00:29.999Z,10.27
2023-01-02T01:02:58.715Z,18.40
2023-01-02T01:05:26.904Z,10.50
2023-01-02T01:07:58.153Z,10.18
2023-01-02T01:10:26.200Z,9.68
2023-01-02T01:12:53.497Z,9.75
2023-01-02T01:15:20.943Z,9.57
2023-01-02T01:17:48.295Z,9.68
2023-01-02T01:20:15.678Z,9.40
2023-01-02T01:22:43.026Z,9.35
2023-01-02T01:25:10.707Z,9.68
2023-01-02T01:27:38.298Z,10.15
2023-01-02T01:30:06.671Z,8.98
2023-01-02T01:32:34.614Z,9.43
2023-01-02T01:35:02.168Z,9.85
2023-01-02T01:37:29.573Z,10.05
2023-01-02T01:39:57.232Z,10.77
2023-01-02T01:42:24.888Z,9.98
2023-01-02T01:44:54.179Z,10.32
2023-01-02T01:47:41.440Z,10.23
2023-01-02T01:50:21.992Z,9.68
2023-01-02T01:53:16.751Z,8.82
2023-01-02T01:55:53.904Z,8.82
2023-01-02T01:58:28.821Z,9.35
2023-01-02T02:00:56.953Z,8.93
2023-01-02T02:03:26.930Z,8.38
2023-01-02T02:05:54.480Z,8.77
2023-01-02T02:08:29.064Z,8.57
2023-01-02T02:10:57.188Z,8.13
2023-01-02T02:13:24.542Z,7.82
2023-01-02T02:16:13.791Z,7.80
2023-01-02T02:19:04.418Z,7.70
2023-01-02T02:21:49.772Z,7.00
2023-01-02T02:24:32.017Z,6.70
2023-01-02T02:27:17.624Z,6.20
2023-01-02T02:30:07.983Z,6.68
2023-01-02T02:33:18.217Z,6.65
2023-01-02T02:35:49.418Z,6.28
2023-01-02T02:38:32.609Z,5.80
2023-01-02T02:43:50.150Z,7.50
2023-01-02T02:46:28.272Z,5.88
2023-01-02T02:49:04.431Z,6.47
2023-01-02T02:51:51.538Z,6.55
2023-01-02T02:54:29.708Z,7.10
2023-01-02T02:56:57.418Z,6.70
2023-01-02T02:59:26.423Z,6.28
2023-01-02T03:01:53.810Z,5.82
2023-01-02T03:04:22.871Z,6.45
2023-01-02T03:07:08.292Z,6.22
2023-01-02T03:09:49.537Z,5.68
2023-01-02T03:12:34.878Z,6.88
2023-01-02T03:15:53.565Z,6.63
2023-01-02T03:18:32.192Z,6.20
2023-01-02T03:21:13.263Z,6.00
2023-01-02T03:23:47.771Z,5.85
2023-01-02T03:26:18.415Z,6.03
2023-01-02T03:28:49.088Z,5.65
2023-01-02T03:31:19.625Z,5.72
2023-01-02T03:33:52.234Z,5.43
2023-01-02T03:36:24.434Z,5.22
2023-01-02T03:39:19.850Z,4.55
2023-01-02T03:42:00.140Z,4.75
2023-01-02T03:44:35.152Z,4.85
2023-01-02T03:47:17.831Z,5.35
2023-01-02T03:49:47.933Z,4.60
2023-01-02T03:52:16.949Z,5.15
2023-01-02T03:54:47.831Z,4.80
2023-01-02T03:57:21.199Z,5.38
2023-01-02T04:00:10.957Z,4.97
2023-01-02T04:02:47.447Z,5.10
2023-01-02T04:05:25.541Z,5.30
2023-01-02T04:08:17.115Z,5.40
2023-01-02T04:10:47.262Z,6.25
2023-01-02T04:13:46.924Z,5.50
2023-01-02T04:16:17.548Z,5.70
2023-01-02T04:18:58.160Z,6.22
2023-01-02T04:21:28.690Z,6.43
2023-01-02T04:24:07.221Z,6.05
2023-01-02T04:26:40.211Z,6.30
2023-01-02T04:29:07.736Z,6.53
2023-01-02T04:31:47.951Z,6.35
2023-01-02T04:34:16.595Z,6.20
2023-01-02T04:36:44.406Z,6.10
2023-01-02T04:39:11.906Z,6.35
2023-01-02T04:41:40.195Z,6.30
2023-01-02T04:44:07.634Z,5.47
2023-01-02T04:46:35.023Z,5.80
2023-01-02T04:49:02.437Z,5.40
2023-01-02T04:51:30.444Z,5.75
2023-01-02T04:53:57.803Z,5.40
2023-01-02T04:56:26.647Z,6.13
2023-01-02T04:58:53.986Z,7.15
2023-01-02T05:01:22.085Z,6.68
2023-01-02T05:03:52.871Z,7.20
2023-01-02T05:06:20.334Z,6.53
2023-01-02T05:08:47.774Z,6.30
2023-01-02T05:11:19.865Z,5.38
2023-01-02T05:13:47.378Z,5.47
2023-01-02T05:16:14.861Z,5.60
2023-01-02T05:18:42.280Z,5.85
2023-01-02T05:21:32.206Z,4.80
2023-01-02T05:24:02.321Z,4.35
2023-01-02T05:26:32.770Z,3.67
2023-01-02T05:29:00.698Z,2.60
2023-01-02T05:31:28.481Z,2.60
2023-01-02T05:33:57.368Z,2.45
2023-01-02T05:36:25.718Z,3.00
2023-01-02T05:38:53.534Z,3.25
2023-01-02T05:41:21.608Z,4.22
2023-01-02T05:43:49.106Z,4.97
2023-01-02T05:46:18.462Z,5.72
2023-01-02T05:48:46.567Z,6.28
2023-01-02T05:51:15.584Z,6.35
2023-01-02T05:53:43.081Z,6.18
2023-01-02T05:56:13.376Z,5.25
2023-01-02T05:58:43.614Z,5.03
2023-01-02T06:01:14.077Z,4.70
2023-01-02T06:03:44.672Z,4.78
2023-01-02T06:06:12.491Z,4.85
2023-01-02T06:08:39.903Z,4.10
2023-01-02T06:11:07.585Z,4.07
2023-01-02T06:13:36.350Z,3.97
2023-01-02T06:16:04.449Z,4.43
2023-01-02T06:18:33.537Z,5.32
2023-01-02T06:21:01.889Z,4.90
2023-01-02T06:23:29.794Z,6.47
2023-01-02T06:26:01.825Z,6.18
2023-01-02T06:28:29.157Z,7.10
2023-01-02T06:31:00.875Z,6.65
2023-01-02T06:33:29.234Z,7.07
2023-01-02T06:36:08.959Z,6.97
2023-01-02T06:38:36.728Z,6.18
2023-01-02T06:41:05.605Z,5.72
2023-01-02T06:43:34.339Z,5.55
2023-01-02T06:46:04.565Z,5.50
2023-01-02T06:48:32.816Z,5.97
2023-01-02T06:51:00.209Z,6.57
2023-01-02T06:53:27.690Z,6.00
2023-01-02T06:55:58.911Z,5.78
2023-01-02T06:58:29.022Z,5.55
2023-01-02T07:01:00.845Z,4.60
2023-01-02T07:03:28.208Z,5.05
2023-01-02T07:05:59.574Z,5.22
2023-01-02T07:08:26.912Z,4.95
2023-01-02T07:10:54.471Z,4.97
2023-01-02T07:13:21.759Z,4.43
2023-01-02T07:15:49.066Z,4.45
2023-01-02T07:18:16.408Z,3.90
2023-01-02T07:20:43.731Z,3.80
2023-01-02T07:23:11.038Z,4.15
2023-01-02T07:25:44.254Z,4.15
2023-01-02T07:28:12.091Z,4.22
2023-01-02T07:30:39.460Z,4.40
2023-01-02T07:33:06.864Z,4.00
2023-01-02T07:35:34.189Z,3.95
2023-01-02T07:38:01.511Z,3.95
2023-01-02T07:40:32.116Z,3.80
2023-01-02T07:43:00.043Z,3.78
2023-01-02T07:45:27.432Z,3.75
2023-01-02T07:47:54.818Z,3.88
2023-01-02T07:50:22.217Z,3.92
2023-01-02T07:52:49.525Z,3.88
2023-01-02T07:55:17.326Z,3.10
2023-01-02T07:57:47.651Z,2.92
2023-01-02T08:00:16.798Z,2.88
2023-01-02T08:02:44.149Z,3.10
2023-01-02T08:05:11.653Z,2.88
2023-01-02T08:07:44.673Z,2.70
2023-01-02T08:10:13.573Z,2.90
2023-01-02T08:12:41.039Z,3.53
2023-01-02T08:15:08.742Z,3.38
2023-01-02T08:17:36.113Z,3.92
2023-01-02T08:20:08.095Z,3.53
2023-01-02T08:22:36.036Z,4.00
2023-01-02T08:25:03.940Z,4.65
2023-01-02T08:27:31.289Z,4.55
2023-01-02T08:29:58.838Z,5.15
2023-01-02T08:32:26.227Z,5.28
2023-01-02T08:34:53.628Z,4.75
2023-01-02T08:37:21.028Z,4.75
2023-01-02T08:39:48.810Z,4.93
2023-01-02T08:42:16.119Z,5.38
2023-01-02T08:44:43.618Z,4.50
2023-01-02T08:47:11.307Z,4.13
2023-01-02T08:49:38.596Z,3.78
2023-01-02T08:52:06.418Z,3.35
2023-01-02T08:54:35.004Z,3.05
2023-01-02T08:57:02.797Z,2.92
2023-01-02T08:59:30.205Z,2.40
2023-01-02T09:01:57.635Z,3.10
2023-01-02T09:04:25.056Z,1.95
2023-01-02T09:06:52.361Z,1.90
2023-01-02T09:09:19.841Z,2.28
2023-01-02T09:11:51.911Z,1.70
2023-01-02T09:14:21.825Z,1.67
2023-01-02T09:16:50.724Z,1.60
2023-01-02T09:19:18.293Z,1.70
2023-01-02T09:21:46.906Z,1.52
2023-01-02T09:24:14.346Z,1.90
2023-01-02T09:26:42.641Z,2.08
2023-01-02T09:29:11.523Z,1.58
2023-01-02T09:31:39.707Z,2.03
2023-01-02T09:34:07.530Z,1.55
2023-01-02T09:36:35.939Z,1.70
2023-01-02T09:39:04.475Z,1.50
2023-01-02T09:41:52.175Z,1.58
2023-01-02T09:44:44.633Z,1.80
2023-01-02T09:47:11.928Z,1.87
2023-01-02T09:49:44.830Z,2.00
2023-01-02T09:54:51.936Z,2.13
2023-01-02T09:57:46.871Z,1.80
2023-01-02T10:00:25.786Z,1.95
2023-01-02T10:03:11.791Z,2.35
2023-01-02T10:06:17.894Z,2.33
2023-01-02T10:09:00.508Z,2.03
2023-01-02T10:11:36.646Z,2.22
2023-01-02T10:14:32.114Z,1.80
2023-01-02T10:17:00.511Z,1.77
2023-01-02T10:19:36.284Z,1.80
2023-01-02T10:22:04.318Z,2.20
2023-01-02T10:24:49.761Z,1.80
2023-01-02T10:27:28.827Z,2.17
2023-01-02T10:30:10.937Z,1.80
2023-01-02T10:32:39.405Z,2.10
2023-01-02T10:35:06.659Z,2.17
2023-01-02T10:37:35.900Z,2.35
2023-01-02T10:40:04.839Z,2.42
2023-01-02T10:42:33.249Z,2.60
2023-01-02T10:45:01.492Z,2.42
2023-01-02T10:47:39.143Z,2.70
2023-01-02T10:50:11.298Z,3.05
2023-01-02T10:52:50.017Z,2.60
2023-01-02T10:55:40.110Z,3.13
2023-01-02T10:58:24.668Z,3.78
2023-01-02T11:01:19.301Z,3.88
2023-01-02T11:04:06.677Z,3.92
2023-01-02T11:06:39.750Z,3.88
2023-01-02T11:09:21.983Z,4.18
2023-01-02T11:11:51.198Z,4.75
2023-01-02T11:14:22.651Z,4.53
2023-01-02T11:16:50.481Z,5.20
2023-01-02T11:19:29.267Z,5.60
2023-01-02T11:21:58.070Z,6.13
2023-01-02T11:24:28.535Z,7.15
2023-01-02T11:26:56.220Z,7.05
2023-01-02T11:29:31.087Z,7.95
2023-01-02T11:32:02.165Z,7.43
2023-01-02T11:34:38.547Z,8.13
2023-01-02T11:37:12.760Z,8.50
2023-01-02T11:39:40.671Z,8.60
2023-01-02T11:42:39.765Z,9.13
2023-01-02T11:45:17.854Z,9.63
2023-01-02T11:47:55.303Z,9.90
2023-01-02T11:50:25.936Z,9.88
2023-01-02T11:53:02.327Z,9.23
2023-01-02T11:56:16.771Z,9.65
2023-01-02T11:59:01.126Z,9.70
2023-01-02T12:01:32.150Z,9.45
2023-01-02T12:04:00.259Z,9.68
2023-01-02T12:06:43.174Z,9.27
2023-01-02T12:09:14.226Z,9.57
2023-01-02T12:12:07.195Z,8.55
2023-01-02T12:14:54.985Z,8.65
2023-01-02T12:17:41.323Z,9.00
2023-01-02T12:20:30.535Z,8.15
2023-01-02T12:23:15.965Z,7.97
2023-01-02T12:25:49.414Z,9.18
2023-01-02T12:28:38.452Z,8.98
2023-01-02T12:31:44.093Z,8.85
2023-01-02T12:34:36.508Z,8.80
2023-01-02T12:37:24.955Z,8.93
2023-01-02T12:40:04.396Z,8.98
2023-01-02T12:42:50.629Z,9.73
2023-01-02T12:45:54.814Z,9.60
2023-01-02T12:48:32.306Z,9.73
2023-01-02T12:51:30.131Z,9.45
2023-01-02T12:54:19.772Z,10.45
2023-01-02T12:57:00.494Z,10.30
2023-01-02T12:59:53.032Z,10.82
2023-01-02T13:02:41.625Z,10.43
2023-01-02T13:05:17.483Z,11.98
2023-01-02T13:07:53.762Z,12.90
2023-01-02T13:10:24.645Z,13.27
2023-01-02T13:12:52.716Z,12.52
2023-01-02T13:15:26.112Z,13.35
2023-01-02T13:18:04.813Z,13.95
2023-01-02T13:20:46.086Z,12.55
2023-01-02T13:23:31.998Z,12.20
2023-01-02T13:26:08.221Z,12.15
2023-01-02T13:29:07.003Z,12.35
2023-01-02T13:31:46.928Z,12.05
2023-01-02T13:34:32.317Z,12.18
2023-01-02T13:37:08.809Z,12.10
2023-01-02T13:39:42.396Z,11.60
2023-01-02T13:42:42.831Z,10.65
2023-01-02T13:45:16.621Z,11.57
2023-01-02T13:47:52.854Z,11.88
2023-01-02T13:50:23.724Z,12.27
2023-01-02T13:53:05.843Z,12.95
2023-01-02T13:55:40.690Z,13.32
2023-01-02T13:58:15.807Z,13.23
2023-01-02T14:00:51.599Z,14.25
2023-01-02T14:03:21.660Z,13.65
2023-01-02T14:05:58.423Z,13.68
2023-01-02T14:08:31.808Z,13.00
2023-01-02T14:11:13.562Z,12.43
2023-01-02T14:13:45.911Z,11.85
2023-01-02T14:16:37.959Z,12.23
2023-01-02T14:19:14.199Z,11.57
2023-01-02T14:22:03.670Z,10.88
2023-01-02T14:24:37.081Z,8.32
2023-01-02T14:27:07.438Z,8.95
2023-01-02T14:30:01.861Z,8.32
2023-01-02T14:32:35.549Z,7.68
2023-01-02T14:35:14.787Z,6.95
2023-01-02T14:37:49.549Z,6.85
2023-01-02T14:40:23.939Z,6.88
2023-01-02T14:43:33.929Z,6.20
2023-01-02T14:46:09.387Z,5.68
2023-01-02T14:48:49.186Z,5.65
2023-01-02T14:51:26.743Z,4.70
2023-01-02T14:54:25.160Z,4.15
2023-01-02T14:57:02.184Z,4.38
2023-01-02T14:59:53.318Z,4.45
2023-01-02T15:02:25.171Z,5.30
2023-01-02T15:04:57.073Z,5.17
2023-01-02T15:07:25.865Z,5.28
2023-01-02T15:10:04.706Z,5.25
2023-01-02T15:12:52.894Z,5.03
2023-01-02T15:15:25.326Z,4.85
2023-01-02T15:17:53.361Z,5.43
2023-01-02T15:20:26.301Z,4.88
2023-01-02T15:25:39.390Z,4.65
2023-01-02T15:28:29.131Z,5.30
2023-01-02T15:31:01.635Z,4.30
2023-01-02T15:33:34.010Z,4.53
2023-01-02T15:36:24.465Z,4.47
2023-01-02T15:38:52.002Z,4.97
2023-01-02T15:41:19.867Z,5.38
2023-01-02T15:44:06.318Z,5.25
2023-01-02T15:46:33.834Z,5.63
2023-01-02T15:49:03.028Z,5.32
2023-01-02T15:51:41.299Z,5.45
2023-01-02T15:54:16.109Z,5.55
2023-01-02T15:56:43.922Z,5.80
2023-01-02T15:59:34.590Z,5.75
2023-01-02T16:02:03.299Z,5.95
2023-01-02T16:04:33.413Z,5.03
2023-01-02T16:07:21.058Z,4.00
2023-01-02T16:09:54.882Z,4.13
2023-01-02T16:12:23.769Z,3.17
2023-01-02T16:14:55.784Z,3.72
2023-01-02T16:17:37.454Z,2.03
2023-01-02T16:20:13.818Z,1.77
2023-01-02T16:22:50.907Z,1.95
2023-01-02T16:25:21.579Z,2.10
2023-01-02T16:28:00.946Z,2.30
2023-01-02T16:30:40.922Z,2.60
2023-01-02T16:33:30.453Z,2.30
2023-01-02T16:36:05.516Z,3.47
2023-01-02T16:38:54.618Z,3.20
2023-01-02T16:41:37.304Z,3.63
2023-01-02T16:44:15.948Z,4.10
2023-01-02T16:46:47.861Z,3.75
2023-01-02T16:49:17.514Z,4.63
2023-01-02T16:51:47.321Z,4.25
2023-01-02T16:54:15.487Z,4.15
2023-01-02T16:56:43.134Z,4.55
2023-01-02T16:59:10.903Z,4.93
2023-01-02T17:01:38.452Z,5.75
2023-01-02T17:04:06.157Z,5.53
2023-01-02T17:06:33.589Z,5.85
2023-01-02T17:09:01.159Z,6.60
2023-01-02T17:11:28.826Z,7.32
2023-01-02T17:13:56.322Z,6.82
2023-01-02T17:16:23.754Z,6.43
2023-01-02T17:18:51.132Z,6.70
2023-01-02T17:21:19.541Z,5.90
2023-01-02T17:23:46.918Z,5.63
2023-01-02T17:26:14.330Z,5.80
2023-01-02T17:28:44.797Z,6.50
2023-01-02T17:31:15.390Z,5.70
2023-01-02T17:33:43.000Z,4.65
2023-01-02T17:36:12.350Z,5.03
2023-01-02T17:38:39.853Z,5.40
2023-01-02T17:41:11.905Z,6.13
2023-01-02T17:43:39.481Z,5.23
2023-01-02T17:47:00.798Z,5.80
2023-01-02T17:49:22.957Z,5.57
2023-01-02T17:51:51.248Z,6.18
2023-01-02T17:54:19.946Z,6.07
2023-01-02T17:56:50.175Z,9.68
2023-01-02T17:59:20.538Z,8.80
2023-01-02T18:01:48.435Z,7.53
2023-01-02T18:04:16.387Z,5.63
2023-01-02T18:06:44.163Z,5.57
2023-01-02T18:09:11.753Z,5.75
2023-01-02T18:11:39.327Z,8.00
2023-01-02T18:14:21.784Z,7.68
2023-01-02T18:16:53.791Z,6.25
2023-01-02T18:19:26.870Z,6.10
2023-01-02T18:21:56.546Z,7.05
2023-01-02T18:24:27.816Z,7.93
2023-01-02T18:26:59.895Z,6.78
2023-01-02T18:29:29.785Z,7.50
2023-01-02T18:34:48.266Z,9.13
2023-01-02T18:40:03.095Z,6.20
2023-01-02T18:42:35.266Z,7.40
2023-01-02T18:45:04.473Z,7.13
2023-01-02T18:47:39.600Z,6.32
2023-01-02T18:50:23.281Z,5.90
2023-01-02T18:52:51.967Z,6.45
2023-01-02T19:01:37.674Z,7.57
2023-01-02T19:04:31.655Z,7.03
2023-01-02T19:07:40.331Z,10.90
2023-01-02T19:13:07.579Z,8.98
2023-01-02T19:15:51.647Z,9.23
2023-01-02T19:18:34.212Z,8.10
2023-01-02T19:21:30.756Z,7.85
2023-01-02T19:24:27.763Z,8.73
2023-01-02T19:27:08.050Z,8.38
2023-01-02T19:29:50.868Z,8.38
2023-01-02T19:32:40.043Z,8.15
2023-01-02T19:35:34.392Z,8.68
2023-01-02T19:38:17.970Z,8.70
2023-01-02T19:40:45.601Z,9.93
2023-01-02T19:43:13.241Z,8.63
2023-01-02T19:48:22.466Z,8.80
2023-01-02T19:50:50.177Z,12.38
2023-01-02T19:53:17.847Z,13.80
2023-01-02T19:55:45.543Z,10.68
2023-01-02T19:58:16.399Z,9.68
2023-01-02T20:00:44.935Z,8.88
2023-01-02T20:03:13.039Z,8.73
2023-01-02T20:05:41.164Z,8.82
2023-01-02T20:08:12.398Z,9.55
2023-01-02T20:10:41.675Z,9.25
2023-01-02T20:13:09.316Z,9.73
2023-01-02T20:15:37.312Z,9.82
2023-01-02T20:18:09.008Z,10.00
2023-01-02T20:20:37.044Z,9.90
2023-01-02T20:23:04.716Z,9.90
2023-01-02T20:25:36.826Z,10.50
2023-01-02T20:28:04.803Z,10.48
2023-01-02T20:30:32.713Z,10.75
2023-01-02T20:33:01.913Z,11.02
2023-01-02T20:35:29.548Z,12.07
2023-01-02T20:37:57.375Z,11.88
2023-01-02T20:40:25.301Z,12.82
2023-01-02T20:42:52.769Z,12.48
2023-01-02T20:45:20.359Z,11.45
2023-01-02T20:47:51.913Z,12.40
2023-01-02T20:50:19.591Z,12.55
2023-01-02T20:52:56.951Z,12.63
2023-01-02T20:55:24.977Z,11.63
2023-01-02T20:57:54.420Z,11.73
2023-01-02T21:00:22.074Z,10.85
2023-01-02T21:02:49.857Z,11.23
2023-01-02T21:05:19.498Z,10.10
2023-01-02T21:07:47.072Z,10.43
2023-01-02T21:10:26.137Z,9.88
2023-01-02T21:13:11.202Z,10.30
2023-01-02T21:15:48.170Z,9.82
2023-01-02T21:18:27.441Z,9.98
2023-01-02T21:21:00.184Z,9.77
2023-01-02T21:23:29.098Z,9.63
2023-01-02T21:25:58.032Z,9.43
2023-01-02T21:28:26.921Z,9.38
2023-01-02T21:30:54.506Z,9.02
2023-01-02T21:33:23.337Z,8.88
2023-01-02T21:35:51.727Z,7.90
2023-01-02T21:38:21.289Z,11.30
2023-01-02T21:40:49.200Z,10.23
2023-01-02T21:43:16.751Z,10.43
2023-01-02T21:45:44.293Z,10.35
2023-01-02T21:48:11.709Z,10.25
2023-01-02T21:50:39.098Z,11.57
2023-01-02T21:53:06.551Z,10.88
2023-01-02T21:55:33.875Z,11.55
2023-01-02T21:58:16.906Z,12.05
2023-01-02T22:00:44.415Z,13.20
2023-01-02T22:03:12.110Z,13.20
2023-01-02T22:05:39.728Z,11.88
2023-01-02T22:08:07.200Z,12.98
2023-01-02T22:10:34.550Z,12.77
2023-01-02T22:13:04.758Z,12.93
2023-01-02T22:15:32.096Z,13.07
2023-01-02T22:17:59.436Z,12.32
2023-01-02T22:20:26.783Z,12.60
2023-01-02T22:22:54.184Z,11.90
2023-01-02T22:25:21.452Z,12.07
2023-01-02T22:27:48.788Z,11.07
2023-01-02T22:30:24.300Z,10.82
2023-01-02T22:32:53.743Z,11.10
2023-01-02T22:35:21.030Z,10.10
2023-01-02T22:37:48.442Z,10.93
2023-01-02T22:40:16.357Z,11.57
2023-01-02T22:43:04.265Z,10.45
2023-01-02T22:45:40.127Z,10.45
2023-01-02T22:48:14.323Z,10.40
2023-01-02T22:50:44.054Z,10.30
2023-01-02T22:53:22.329Z,9.95
2023-01-02T22:55:50.178Z,10.05
2023-01-02T22:58:17.966Z,10.65
2023-01-02T23:00:47.016Z,11.10
2023-01-02T23:03:15.719Z,10.15
2023-01-02T23:05:43.450Z,10.90
2023-01-02T23:08:10.925Z,11.93
2023-01-02T23:10:38.509Z,11.48
2023-01-02T23:13:06.242Z,13.32
2023-01-02T23:15:33.604Z,13.25
2023-01-02T23:18:19.461Z,14.05
2023-01-02T23:20:46.771Z,15.68
2023-01-02T23:23:14.303Z,16.77
2023-01-02T23:25:43.301Z,18.77
2023-01-02T23:28:16.573Z,18.90
2023-01-02T23:30:58.023Z,18.85
2023-01-02T23:33:25.445Z,20.85
2023-01-02T23:35:53.359Z,23.25
2023-01-02T23:38:20.690Z,23.42
2023-01-02T23:40:48.162Z,24.75
2023-01-02T23:43:17.017Z,26.92
2023-01-02T23:45:44.408Z,29.20
2023-01-02T23:48:11.710Z,29.63
2023-01-02T23:50:39.042Z,31.60
2023-01-02T23:53:06.340Z,31.15
2023-01-02T23:55:33.651Z,32.92
2023-01-02T23:58:01.022Z,33.65
